Time;durP1;ratioP1;P1;durP2;ratioP2;P2;SDS_P1;SDS_P2;PMS_P1;PMS_P2;Temp;Humidity;BMP_temperature;BMP_pressure;BME280_temperature;BME280_humidity;BME280_pressure;Samples;Min_cycle;Max_cycle;Signal;HPM_P1;HPM_P2
2023/06/30 05:09:30;;;;;;;3.50;2.47;;;24.00;92.30;;;;;;5077200;28;20419;-80
2023/06/30 05:11:57;;;;;;;6.43;2.93;;;24.00;92.40;;;;;;5089271;28;20428;-81
2023/06/30 05:14:24;;;;;;;5.50;2.17;;;23.90;92.30;;;;;;5097519;28;20497;-84
2023/06/30 05:16:51;;;;;;;3.53;2.33;;;23.80;92.40;;;;;;5097405;28;20449;-80
2023/06/30 05:19:17;;;;;;;3.40;1.87;;;23.80;92.40;;;;;;5097850;28;20441;-80
2023/06/30 05:21:46;;;;;;;5.50;2.10;;;23.80;92.60;;;;;;5099117;28;20449;-82
2023/06/30 05:24:12;;;;;;;6.47;2.50;;;23.70;90.40;;;;;;5086176;28;20522;-95
2023/06/30 05:30:04;;;;;;;5.20;2.20;;;23.60;83.40;;;;;;5088113;28;20426;-96
2023/06/30 05:32:30;;;;;;;7.20;2.27;;;23.60;82.60;;;;;;5098234;28;20917;-96
2023/06/30 05:34:57;;;;;;;11.33;2.13;;;23.50;81.90;;;;;;5097127;28;20483;-81
2023/06/30 05:37:24;;;;;;;3.87;2.13;;;23.50;82.70;;;;;;5096858;28;20448;-95
2023/06/30 05:39:50;;;;;;;5.03;2.03;;;23.50;83.00;;;;;;5096868;28;20449;-80
2023/06/30 05:42:17;;;;;;;5.40;1.83;;;23.50;82.40;;;;;;5097608;28;20800;-92
2023/06/30 05:44:44;;;;;;;8.70;2.30;;;23.50;82.80;;;;;;5097813;28;20468;-94
2023/06/30 05:47:12;;;;;;;6.37;2.47;;;23.50;82.80;;;;;;5098212;28;20458;-84
2023/06/30 05:49:39;;;;;;;4.60;2.00;;;23.50;82.70;;;;;;5097381;28;20437;-84
2023/06/30 05:52:08;;;;;;;3.13;1.77;;;23.60;82.60;;;;;;5096848;28;20934;-84
2023/06/30 05:54:34;;;;;;;3.57;1.63;;;23.60;82.30;;;;;;5096894;28;20489;-96
2023/06/30 05:57:01;;;;;;;4.90;1.60;;;23.70;82.00;;;;;;5096712;28;20445;-96
2023/06/30 05:59:30;;;;;;;1.80;1.50;;;23.80;82.10;;;;;;5096385;28;20445;-96
2023/06/30 06:01:57;;;;;;;4.40;1.73;;;23.90;81.70;;;;;;5096279;28;20491;-93
2023/06/30 06:04:25;;;;;;;4.23;1.80;;;24.00;81.60;;;;;;5096625;28;20445;-96
2023/06/30 06:06:52;;;;;;;2.50;1.80;;;24.10;81.40;;;;;;5097021;28;20474;-96
2023/06/30 06:09:19;;;;;;;1.93;1.50;;;24.10;81.30;;;;;;5096924;28;20446;-95
2023/06/30 06:11:46;;;;;;;2.67;1.53;;;24.40;81.60;;;;;;5097109;28;20430;-96
2023/06/30 06:14:12;;;;;;;2.47;1.40;;;24.20;81.00;;;;;;5096822;28;20482;-94
2023/06/30 06:16:39;;;;;;;3.73;1.67;;;24.30;81.00;;;;;;5097132;28;20450;-96
2023/06/30 06:19:06;;;;;;;3.40;1.50;;;24.30;80.60;;;;;;5096963;28;21040;-95
2023/06/30 06:21:35;;;;;;;3.67;1.47;;;24.40;80.80;;;;;;5097067;28;20488;-84
2023/06/30 06:24:02;;;;;;;3.03;1.30;;;24.40;80.60;;;;;;5097262;28;20437;-96
2023/06/30 06:26:29;;;;;;;3.07;1.67;;;24.40;80.30;;;;;;5096667;28;20536;-96
2023/06/30 06:28:56;;;;;;;2.90;1.40;;;24.50;80.20;;;;;;5096460;28;20438;-96
2023/06/30 06:31:24;;;;;;;3.53;1.60;;;24.50;80.00;;;;;;5096856;28;20442;-96
2023/06/30 06:33:51;;;;;;;2.67;1.60;;;24.50;80.00;;;;;;5096954;28;20444;-84
2023/06/30 06:36:18;;;;;;;4.37;1.47;;;24.50;80.00;;;;;;5096563;28;20442;-89
2023/06/30 06:38:48;;;;;;;2.60;1.30;;;24.60;80.10;;;;;;5096392;28;20531;-84
2023/06/30 06:41:15;;;;;;;2.30;1.53;;;24.60;79.90;;;;;;5097235;28;20439;-84
2023/06/30 06:43:42;;;;;;;2.63;1.47;;;24.60;79.70;;;;;;5096224;28;20530;-84
2023/06/30 06:46:09;;;;;;;2.20;1.23;;;24.60;79.70;;;;;;5106261;28;20450;-96
2023/06/30 06:48:36;;;;;;;2.63;1.40;;;24.70;80.00;;;;;;5110262;28;20442;-96
2023/06/30 06:51:04;;;;;;;2.30;1.37;;;24.70;80.00;;;;;;5108325;28;20452;-86
2023/06/30 06:53:33;;;;;;;1.50;1.10;;;24.70;79.60;;;;;;5101704;28;20435;-95
2023/06/30 06:56:03;;;;;;;2.00;1.80;;;24.70;79.80;;;;;;5096368;28;20880;-91
2023/06/30 06:58:31;;;;;;;4.30;1.60;;;24.70;79.60;;;;;;5095800;28;20477;-95
2023/06/30 07:00:58;;;;;;;1.60;1.00;;;24.70;79.90;;;;;;5096818;28;20476;-88
2023/06/30 07:03:25;;;;;;;1.90;1.13;;;24.70;79.50;;;;;;5095754;28;20447;-90
2023/06/30 07:05:52;;;;;;;2.23;1.70;;;24.80;79.60;;;;;;5095933;28;20884;-96
2023/06/30 07:08:20;;;;;;;3.93;1.40;;;24.90;79.70;;;;;;5096189;28;20483;-94
2023/06/30 07:10:47;;;;;;;1.60;1.10;;;24.80;79.30;;;;;;5097726;28;20519;-95
2023/06/30 07:13:17;;;;;;;2.57;1.80;;;24.80;79.50;;;;;;5097367;28;20445;-91
2023/06/30 07:15:45;;;;;;;1.90;1.37;;;24.80;79.40;;;;;;5096299;28;20489;-86
2023/06/30 07:18:12;;;;;;;2.73;1.50;;;24.80;79.70;;;;;;5096956;28;20436;-94
2023/06/30 07:20:38;;;;;;;1.40;1.23;;;24.80;79.70;;;;;;5096924;28;20944;-86
2023/06/30 07:23:05;;;;;;;5.07;1.50;;;24.80;79.80;;;;;;5096741;28;20775;-93
2023/06/30 07:25:32;;;;;;;4.63;1.53;;;24.90;79.80;;;;;;5095858;28;20532;-94
2023/06/30 07:27:59;;;;;;;2.30;1.60;;;24.90;79.90;;;;;;5095477;28;20447;-91
2023/06/30 07:30:28;;;;;;;2.57;1.33;;;24.90;79.90;;;;;;5096189;28;20788;-87
2023/06/30 07:32:56;;;;;;;2.00;1.20;;;24.90;79.90;;;;;;5093878;28;20452;-87
2023/06/30 07:35:23;;;;;;;1.80;1.33;;;24.90;80.00;;;;;;5094067;28;20493;-96
2023/06/30 07:37:51;;;;;;;1.57;1.20;;;24.90;80.00;;;;;;5101401;28;20800;-84
2023/06/30 07:40:19;;;;;;;4.50;1.63;;;24.90;80.00;;;;;;5097036;28;20533;-90
2023/06/30 07:42:46;;;;;;;2.10;1.20;;;24.90;79.90;;;;;;5100282;28;20447;-85
2023/06/30 07:45:13;;;;;;;3.07;1.47;;;24.90;80.10;;;;;;5099383;28;20556;-86
2023/06/30 07:47:43;;;;;;;1.33;1.17;;;25.00;80.00;;;;;;5101708;28;20448;-86
2023/06/30 07:50:12;;;;;;;2.17;1.43;;;25.00;80.00;;;;;;5095181;28;20534;-93
2023/06/30 07:52:41;;;;;;;15.60;3.27;;;25.00;79.90;;;;;;5096151;28;20448;-85
2023/06/30 07:55:08;;;;;;;26.73;2.47;;;25.00;78.90;;;;;;5095121;28;20491;-90
2023/06/30 07:57:35;;;;;;;7.90;1.63;;;25.00;79.20;;;;;;5095701;28;20446;-95
2023/06/30 08:00:01;;;;;;;6.83;1.87;;;25.00;79.90;;;;;;5095229;28;20465;-95
2023/06/30 08:02:28;;;;;;;6.40;1.80;;;25.00;80.00;;;;;;5094734;28;20442;-84
2023/06/30 08:04:57;;;;;;;3.20;1.60;;;25.00;80.00;;;;;;5089976;28;20453;-83
2023/06/30 08:07:23;;;;;;;5.83;1.93;;;25.00;80.10;;;;;;5094412;28;20455;-91
2023/06/30 08:09:50;;;;;;;4.90;1.70;;;25.00;80.00;;;;;;5095509;28;20528;-84
2023/06/30 08:12:17;;;;;;;6.33;1.63;;;25.00;79.90;;;;;;5096195;28;20464;-94
2023/06/30 08:14:44;;;;;;;3.70;1.60;;;25.20;80.10;;;;;;5097183;28;20537;-87
2023/06/30 08:17:10;;;;;;;4.43;1.50;;;25.00;80.00;;;;;;5116055;28;20497;-83
2023/06/30 08:19:41;;;;;;;4.03;1.30;;;25.10;80.10;;;;;;5116753;28;20435;-89
2023/06/30 08:22:13;;;;;;;5.30;2.23;;;25.10;80.10;;;;;;5118172;28;20422;-93
2023/06/30 08:24:40;;;;;;;4.20;1.57;;;25.10;80.00;;;;;;5117064;28;20441;-81
2023/06/30 08:27:07;;;;;;;4.23;1.30;;;25.10;80.10;;;;;;5117003;28;20494;-86
2023/06/30 08:29:33;;;;;;;9.50;1.60;;;25.10;80.00;;;;;;5117762;28;20444;-92
2023/06/30 08:32:00;;;;;;;1.80;1.10;;;25.10;79.90;;;;;;5116285;28;20435;-84
2023/06/30 08:34:27;;;;;;;9.73;1.90;;;25.20;80.30;;;;;;5117449;28;20491;-86
2023/06/30 08:36:54;;;;;;;2.17;1.60;;;25.20;80.00;;;;;;5117852;28;20444;-88
2023/06/30 08:39:23;;;;;;;5.20;1.83;;;25.20;79.90;;;;;;5116941;28;20426;-87
2023/06/30 08:41:56;;;;;;;5.50;2.10;;;25.20;79.80;;;;;;5117551;28;20416;-85
2023/06/30 08:44:24;;;;;;;9.93;1.70;;;25.20;79.80;;;;;;5117676;28;20473;-85
2023/06/30 08:46:53;;;;;;;6.37;1.83;;;25.20;79.80;;;;;;5117389;28;20431;-88
2023/06/30 08:49:21;;;;;;;7.80;1.60;;;25.20;79.70;;;;;;5117679;28;20460;-91
2023/06/30 08:51:49;;;;;;;5.10;1.80;;;25.30;79.90;;;;;;5117474;28;20443;-91
2023/06/30 08:54:16;;;;;;;3.17;1.13;;;25.30;79.50;;;;;;5117457;28;20454;-91
2023/06/30 08:56:44;;;;;;;2.40;1.40;;;25.30;79.60;;;;;;5116153;28;20546;-95
2023/06/30 08:59:11;;;;;;;2.87;1.40;;;25.40;80.00;;;;;;5104619;28;20431;-95
2023/06/30 09:01:39;;;;;;;2.17;1.40;;;25.30;79.80;;;;;;5095129;28;20432;-91
2023/06/30 09:04:06;;;;;;;5.13;1.80;;;25.40;79.90;;;;;;5094610;28;20440;-95
2023/06/30 09:06:33;;;;;;;3.83;1.93;;;25.40;79.70;;;;;;5094938;28;20483;-95
2023/06/30 09:09:04;;;;;;;4.33;1.70;;;25.40;79.60;;;;;;5100087;28;20530;-96
2023/06/30 09:11:32;;;;;;;4.40;1.30;;;25.50;79.70;;;;;;5096746;28;20463;-84
2023/06/30 09:14:02;;;;;;;10.00;1.53;;;25.70;79.50;;;;;;5094473;28;20468;-85
2023/06/30 09:16:30;;;;;;;2.40;1.47;;;25.50;79.40;;;;;;5094469;28;20479;-85
2023/06/30 09:18:57;;;;;;;2.80;1.40;;;25.50;79.70;;;;;;5097734;28;20441;-86
2023/06/30 09:21:24;;;;;;;2.13;1.40;;;25.50;79.40;;;;;;5101211;28;20435;-96
2023/06/30 09:23:51;;;;;;;2.50;1.33;;;25.50;79.40;;;;;;5101569;28;20431;-96
2023/06/30 09:26:19;;;;;;;1.40;1.10;;;25.60;79.30;;;;;;5101934;28;20445;-91
2023/06/30 09:28:46;;;;;;;5.13;1.60;;;25.60;79.20;;;;;;5101017;28;20432;-84
2023/06/30 09:31:15;;;;;;;4.77;1.13;;;25.60;79.00;;;;;;5099780;28;20436;-84
2023/06/30 09:33:43;;;;;;;3.70;1.30;;;25.80;79.50;;;;;;5100518;28;20441;-89
2023/06/30 09:36:17;;;;;;;2.40;1.30;;;25.60;79.30;;;;;;5101162;28;20481;-84
2023/06/30 09:38:44;;;;;;;1.77;1.30;;;25.60;79.20;;;;;;5100032;28;20513;-96
2023/06/30 09:41:20;;;;;;;2.23;1.40;;;25.70;79.20;;;;;;5101243;28;20541;-96
2023/06/30 09:43:48;;;;;;;2.23;1.20;;;25.80;79.30;;;;;;5094828;28;20470;-86
2023/06/30 09:46:21;;;;;;;2.37;1.20;;;25.80;78.70;;;;;;5092433;28;20444;-86
2023/06/30 09:48:48;;;;;;;3.03;1.37;;;25.70;77.70;;;;;;5099779;28;20443;-86
2023/06/30 09:51:19;;;;;;;2.23;1.20;;;25.80;78.40;;;;;;5095701;28;20454;-81
2023/06/30 09:53:46;;;;;;;1.53;1.10;;;25.70;78.00;;;;;;5097621;28;20451;-83
2023/06/30 09:56:20;;;;;;;4.13;1.10;;;25.70;77.40;;;;;;5098257;28;20479;-92
2023/06/30 09:58:47;;;;;;;1.10;0.90;;;25.60;77.40;;;;;;5098316;28;20444;-95
2023/06/30 10:01:18;;;;;;;3.57;1.00;;;25.60;77.30;;;;;;5100026;28;20495;-83
2023/06/30 10:03:48;;;;;;;1.97;1.30;;;25.50;77.80;;;;;;5098316;28;20463;-95
2023/06/30 10:06:17;;;;;;;2.87;1.13;;;25.50;77.20;;;;;;5102944;28;20474;-82
2023/06/30 10:08:45;;;;;;;3.17;1.20;;;25.40;77.00;;;;;;5096546;22;20488;-83
2023/06/30 10:11:11;;;;;;;2.43;1.37;;;25.40;77.00;;;;;;5070379;28;20427;-82
2023/06/30 10:13:40;;;;;;;1.77;1.00;;;25.40;77.00;;;;;;5062440;28;20480;-95
2023/06/30 10:16:08;;;;;;;1.33;1.07;;;25.40;77.50;;;;;;5061911;28;20489;-84
2023/06/30 10:18:41;;;;;;;2.80;1.40;;;25.40;77.20;;;;;;5059196;28;20436;-83
2023/06/30 10:21:07;;;;;;;2.70;1.33;;;25.40;78.00;;;;;;5058087;28;20452;-83
2023/06/30 10:23:36;;;;;;;3.33;1.40;;;25.40;78.00;;;;;;5060760;28;20441;-84
2023/06/30 10:26:06;;;;;;;2.33;1.20;;;25.40;78.00;;;;;;5060599;28;20445;-96
2023/06/30 10:28:34;;;;;;;1.60;1.07;;;25.40;78.00;;;;;;5056208;28;20439;-90
2023/06/30 10:31:01;;;;;;;1.30;1.00;;;25.40;78.00;;;;;;5036172;28;20508;-85
2023/06/30 10:33:28;;;;;;;3.50;1.20;;;25.60;78.10;;;;;;5049865;28;21300;-83
2023/06/30 10:35:58;;;;;;;2.03;1.30;;;25.40;78.30;;;;;;5055653;28;20491;-89
2023/06/30 10:38:25;;;;;;;1.83;1.00;;;25.40;78.20;;;;;;5055938;28;20533;-84
2023/06/30 10:41:12;;;;;;;3.97;1.13;;;25.40;78.30;;;;;;5055047;28;20535;-83
2023/06/30 10:44:06;;;;;;;3.83;1.33;;;25.40;78.20;;;;;;5055738;28;20454;-80
2023/06/30 10:46:51;;;;;;;5.30;1.20;;;25.40;78.10;;;;;;5039463;28;20508;-88
2023/06/30 10:49:23;;;;;;;2.60;1.30;;;25.40;78.50;;;;;;5055489;28;20528;-83
2023/06/30 10:51:52;;;;;;;3.70;1.57;;;25.40;78.40;;;;;;5054662;28;20438;-82
2023/06/30 10:54:23;;;;;;;2.30;1.20;;;25.40;78.40;;;;;;5055280;28;20444;-85
2023/06/30 10:56:51;;;;;;;1.77;1.20;;;25.40;77.40;;;;;;5048566;28;20464;-94
2023/06/30 10:59:23;;;;;;;6.07;1.10;;;25.40;77.10;;;;;;5035558;28;20520;-81
2023/06/30 11:02:22;;;;;;;3.07;1.27;;;25.30;76.00;;;;;;5047555;28;20439;-80
2023/06/30 11:04:52;;;;;;;6.10;1.60;;;25.30;75.60;;;;;;5055319;28;20445;-79
2023/06/30 11:07:24;;;;;;;3.57;1.70;;;25.30;75.70;;;;;;5055111;28;20446;-80
2023/06/30 11:10:01;;;;;;;2.47;1.13;;;25.40;76.10;;;;;;5054821;28;20987;-80
2023/06/30 11:12:49;;;;;;;3.37;1.50;;;25.30;76.40;;;;;;5055736;28;20431;-93
2023/06/30 11:15:35;;;;;;;3.77;1.63;;;25.30;76.90;;;;;;5054350;28;20495;-90
2023/06/30 11:18:05;;;;;;;1.30;1.07;;;25.30;77.90;;;;;;5045262;28;20505;-89
2023/06/30 11:20:32;;;;;;;2.23;1.30;;;25.30;76.90;;;;;;5050962;28;20441;-89
2023/06/30 11:23:02;;;;;;;4.03;1.00;;;25.30;76.90;;;;;;5054875;28;20501;-79
2023/06/30 11:25:30;;;;;;;1.90;1.20;;;25.30;76.90;;;;;;5036062;28;20461;-80
2023/06/30 11:28:01;;;;;;;2.77;1.50;;;25.30;78.00;;;;;;5047163;28;20490;-80
2023/06/30 11:30:28;;;;;;;2.20;1.23;;;25.20;77.70;;;;;;5054152;28;20450;-82
2023/06/30 11:32:59;;;;;;;2.87;1.40;;;25.20;76.60;;;;;;5053079;28;20457;-83
2023/06/30 11:35:28;;;;;;;2.20;1.30;;;25.20;75.90;;;;;;5054583;28;20446;-80
2023/06/30 11:37:55;;;;;;;2.13;1.13;;;25.20;75.90;;;;;;5053717;28;20449;-80
2023/06/30 11:40:24;;;;;;;7.37;1.30;;;25.20;75.40;;;;;;5053680;28;20453;-83
2023/06/30 11:42:52;;;;;;;4.40;1.40;;;25.20;73.60;;;;;;5053646;28;20466;-82
2023/06/30 11:45:20;;;;;;;2.90;1.47;;;25.20;73.40;;;;;;5053730;28;20441;-82
2023/06/30 11:47:51;;;;;;;4.57;1.07;;;25.20;73.80;;;;;;5053870;28;20444;-90
2023/06/30 11:50:18;;;;;;;5.37;1.23;;;25.20;74.40;;;;;;5053710;28;20805;-89
2023/06/30 11:52:46;;;;;;;2.67;1.33;;;25.20;74.60;;;;;;5053537;28;20775;-83
2023/06/30 11:55:14;;;;;;;3.10;1.30;;;25.20;75.70;;;;;;5053880;28;20441;-86
2023/06/30 11:57:46;;;;;;;8.03;1.30;;;25.20;76.00;;;;;;5055506;28;20509;-81
2023/06/30 12:00:14;;;;;;;7.63;1.43;;;25.20;74.70;;;;;;5056280;28;20442;-82
2023/06/30 12:02:46;;;;;;;6.27;1.30;;;25.20;75.00;;;;;;5054205;28;20451;-86
2023/06/30 12:05:16;;;;;;;1.90;1.33;;;25.20;76.80;;;;;;5054005;28;20504;-87
